sensor_id;sensor_type;location;lat;lon;timestamp;pressure;altitude;pressure_sealevel;temperature;humidity
31062;BME280;17724;53.546;9.974;2024-01-27T00:03:20;102780.78;;;7.95;96.52
31062;BME280;17724;53.546;9.974;2024-01-27T00:07:20;102771.00;;;7.56;96.99
31062;BME280;17724;53.546;9.974;2024-01-27T00:11:22;102764.13;;;7.60;96.81
31062;BME280;17724;53.546;9.974;2024-01-27T00:15:24;102770.16;;;7.55;97.16
31062;BME280;17724;53.546;9.974;2024-01-27T00:19:25;102771.25;;;7.76;96.55
31062;BME280;17724;53.546;9.974;2024-01-27T00:23:25;102766.66;;;7.61;97.04
31062;BME280;17724;53.546;9.974;2024-01-27T00:27:26;102773.16;;;7.60;97.47
31062;BME280;17724;53.546;9.974;2024-01-27T00:31:26;102779.44;;;7.54;97.41
31062;BME280;17724;53.546;9.974;2024-01-27T00:35:27;102784.69;;;7.71;97.49
31062;BME280;17724;53.546;9.974;2024-01-27T00:39:27;102778.38;;;7.55;97.01
31062;BME280;17724;53.546;9.974;2024-01-27T00:43:28;102785.28;;;7.51;97.80
31062;BME280;17724;53.546;9.974;2024-01-27T00:47:28;102791.38;;;7.68;98.24
31062;BME280;17724;53.546;9.974;2024-01-27T00:51:29;102783.06;;;7.61;98.35
31062;BME280;17724;53.546;9.974;2024-01-27T00:55:29;102788.84;;;7.67;99.09
31062;BME280;17724;53.546;9.974;2024-01-27T00:59:30;102778.84;;;7.29;100.00
31062;BME280;17724;53.546;9.974;2024-01-27T01:03:30;102795.19;;;7.52;100.00
31062;BME280;17724;53.546;9.974;2024-01-27T01:07:31;102800.81;;;7.65;100.00
31062;BME280;17724;53.546;9.974;2024-01-27T01:11:31;102809.88;;;7.81;100.00
31062;BME280;17724;53.546;9.974;2024-01-27T01:15:32;102805.84;;;7.47;100.00
31062;BME280;17724;53.546;9.974;2024-01-27T01:19:32;102790.47;;;7.46;100.00
31062;BME280;17724;53.546;9.974;2024-01-27T01:23:33;102813.38;;;7.89;100.00
31062;BME280;17724;53.546;9.974;2024-01-27T01:27:33;102823.31;;;7.61;100.00
31062;BME280;17724;53.546;9.974;2024-01-27T01:31:34;102831.91;;;7.58;100.00
31062;BME280;17724;53.546;9.974;2024-01-27T01:35:34;102827.56;;;7.78;100.00
31062;BME280;17724;53.546;9.974;2024-01-27T01:39:35;102817.19;;;7.44;100.00
31062;BME280;17724;53.546;9.974;2024-01-27T01:43:35;102843.81;;;7.65;100.00
31062;BME280;17724;53.546;9.974;2024-01-27T01:47:36;102839.34;;;7.49;100.00
31062;BME280;17724;53.546;9.974;2024-01-27T01:51:37;102863.06;;;7.57;100.00
31062;BME280;17724;53.546;9.974;2024-01-27T01:55:37;102871.38;;;7.49;100.00
31062;BME280;17724;53.546;9.974;2024-01-27T01:59:38;102876.75;;;7.42;100.00
31062;BME280;17724;53.546;9.974;2024-01-27T02:03:51;102877.69;;;7.49;100.00
31062;BME280;17724;53.546;9.974;2024-01-27T02:07:52;102882.06;;;7.58;100.00
31062;BME280;17724;53.546;9.974;2024-01-27T02:11:56;102888.84;;;7.48;100.00
31062;BME280;17724;53.546;9.974;2024-01-27T02:15:57;102890.09;;;7.75;100.00
31062;BME280;17724;53.546;9.974;2024-01-27T02:19:57;102894.06;;;7.72;100.00
31062;BME280;17724;53.546;9.974;2024-01-27T02:24:00;102902.28;;;7.87;100.00
31062;BME280;17724;53.546;9.974;2024-01-27T02:28:01;102914.63;;;7.68;100.00
31062;BME280;17724;53.546;9.974;2024-01-27T02:32:05;102903.97;;;8.03;100.00
31062;BME280;17724;53.546;9.974;2024-01-27T02:36:06;102906.16;;;7.93;99.06
31062;BME280;17724;53.546;9.974;2024-01-27T02:40:07;102903.78;;;7.60;100.00
31062;BME280;17724;53.546;9.974;2024-01-27T02:44:08;102907.38;;;7.75;100.00
31062;BME280;17724;53.546;9.974;2024-01-27T02:48:09;102916.06;;;7.79;100.00
31062;BME280;17724;53.546;9.974;2024-01-27T02:52:09;102916.72;;;7.66;100.00
31062;BME280;17724;53.546;9.974;2024-01-27T02:56:09;102920.13;;;7.68;100.00
31062;BME280;17724;53.546;9.974;2024-01-27T03:00:10;102924.31;;;7.41;100.00
31062;BME280;17724;53.546;9.974;2024-01-27T03:04:11;102939.25;;;7.38;100.00
31062;BME280;17724;53.546;9.974;2024-01-27T03:08:11;102921.44;;;7.20;100.00
31062;BME280;17724;53.546;9.974;2024-01-27T03:12:12;102915.34;;;7.32;100.00
31062;BME280;17724;53.546;9.974;2024-01-27T03:16:12;102918.91;;;7.71;100.00
31062;BME280;17724;53.546;9.974;2024-01-27T03:20:13;102922.63;;;7.40;100.00
31062;BME280;17724;53.546;9.974;2024-01-27T03:24:14;102936.53;;;7.15;100.00
31062;BME280;17724;53.546;9.974;2024-01-27T03:28:14;102945.78;;;7.14;100.00
31062;BME280;17724;53.546;9.974;2024-01-27T03:32:16;102948.94;;;7.26;100.00
31062;BME280;17724;53.546;9.974;2024-01-27T03:36:16;102944.91;;;7.14;100.00
31062;BME280;17724;53.546;9.974;2024-01-27T03:40:17;102944.19;;;7.20;100.00
31062;BME280;17724;53.546;9.974;2024-01-27T03:44:18;102954.75;;;7.00;100.00
31062;BME280;17724;53.546;9.974;2024-01-27T03:48:18;102954.28;;;6.97;100.00
31062;BME280;17724;53.546;9.974;2024-01-27T03:52:19;102966.00;;;7.05;100.00
31062;BME280;17724;53.546;9.974;2024-01-27T03:56:20;102977.19;;;6.96;100.00
31062;BME280;17724;53.546;9.974;2024-01-27T04:00:21;102975.56;;;6.86;100.00
31062;BME280;17724;53.546;9.974;2024-01-27T04:04:21;102975.91;;;6.83;100.00
31062;BME280;17724;53.546;9.974;2024-01-27T04:08:21;102980.03;;;6.79;100.00
31062;BME280;17724;53.546;9.974;2024-01-27T04:12:22;102964.97;;;6.83;100.00
31062;BME280;17724;53.546;9.974;2024-01-27T04:16:23;102967.97;;;6.65;100.00
31062;BME280;17724;53.546;9.974;2024-01-27T04:20:23;102975.31;;;6.65;100.00
31062;BME280;17724;53.546;9.974;2024-01-27T04:24:24;102983.38;;;6.89;100.00
31062;BME280;17724;53.546;9.974;2024-01-27T04:28:24;102972.03;;;6.47;100.00
31062;BME280;17724;53.546;9.974;2024-01-27T04:32:25;102993.38;;;6.43;100.00
31062;BME280;17724;53.546;9.974;2024-01-27T04:36:27;102997.34;;;6.72;100.00
31062;BME280;17724;53.546;9.974;2024-01-27T04:40:29;103003.22;;;6.60;100.00
31062;BME280;17724;53.546;9.974;2024-01-27T04:44:29;103001.19;;;6.54;100.00
31062;BME280;17724;53.546;9.974;2024-01-27T04:48:29;103003.31;;;6.75;100.00
31062;BME280;17724;53.546;9.974;2024-01-27T04:52:30;103014.25;;;6.75;100.00
31062;BME280;17724;53.546;9.974;2024-01-27T04:56:30;102997.56;;;6.62;100.00
31062;BME280;17724;53.546;9.974;2024-01-27T05:00:31;103008.56;;;6.46;100.00
31062;BME280;17724;53.546;9.974;2024-01-27T05:04:31;103022.38;;;6.52;100.00
31062;BME280;17724;53.546;9.974;2024-01-27T05:08:32;103014.50;;;6.57;100.00
31062;BME280;17724;53.546;9.974;2024-01-27T05:12:32;103020.31;;;6.62;100.00
31062;BME280;17724;53.546;9.974;2024-01-27T05:16:33;103009.06;;;6.49;100.00
31062;BME280;17724;53.546;9.974;2024-01-27T05:20:34;103016.53;;;6.63;100.00
31062;BME280;17724;53.546;9.974;2024-01-27T05:24:35;103014.66;;;6.64;100.00
31062;BME280;17724;53.546;9.974;2024-01-27T05:28:35;103029.84;;;6.66;100.00
31062;BME280;17724;53.546;9.974;2024-01-27T05:32:36;103026.22;;;6.35;100.00
31062;BME280;17724;53.546;9.974;2024-01-27T05:36:36;103020.09;;;6.16;100.00
31062;BME280;17724;53.546;9.974;2024-01-27T05:40:37;103014.44;;;6.26;100.00
31062;BME280;17724;53.546;9.974;2024-01-27T05:44:37;103013.63;;;6.09;100.00
31062;BME280;17724;53.546;9.974;2024-01-27T05:48:38;103030.88;;;6.10;100.00
31062;BME280;17724;53.546;9.974;2024-01-27T05:52:39;103033.69;;;6.41;100.00
31062;BME280;17724;53.546;9.974;2024-01-27T05:56:39;103036.34;;;6.10;100.00
31062;BME280;17724;53.546;9.974;2024-01-27T06:00:40;103032.75;;;6.09;100.00
31062;BME280;17724;53.546;9.974;2024-01-27T06:04:42;103037.56;;;6.07;100.00
31062;BME280;17724;53.546;9.974;2024-01-27T06:08:43;103049.31;;;6.16;100.00
31062;BME280;17724;53.546;9.974;2024-01-27T06:12:43;103057.25;;;6.42;100.00
31062;BME280;17724;53.546;9.974;2024-01-27T06:16:44;103060.72;;;6.36;100.00
31062;BME280;17724;53.546;9.974;2024-01-27T06:20:44;103068.75;;;6.29;100.00
31062;BME280;17724;53.546;9.974;2024-01-27T06:24:45;103078.53;;;6.15;100.00
31062;BME280;17724;53.546;9.974;2024-01-27T06:28:45;103078.16;;;6.27;100.00
31062;BME280;17724;53.546;9.974;2024-01-27T06:32:46;103080.91;;;6.02;100.00
31062;BME280;17724;53.546;9.974;2024-01-27T06:36:47;103086.56;;;6.01;100.00
31062;BME280;17724;53.546;9.974;2024-01-27T06:40:48;103061.97;;;5.68;100.00
31062;BME280;17724;53.546;9.974;2024-01-27T06:44:48;103080.03;;;5.77;100.00
31062;BME280;17724;53.546;9.974;2024-01-27T06:48:49;103097.81;;;5.98;100.00
31062;BME280;17724;53.546;9.974;2024-01-27T06:52:49;103091.66;;;5.79;100.00
31062;BME280;17724;53.546;9.974;2024-01-27T06:56:49;103116.25;;;5.79;100.00
31062;BME280;17724;53.546;9.974;2024-01-27T07:00:50;103116.75;;;5.91;100.00
31062;BME280;17724;53.546;9.974;2024-01-27T07:04:50;103108.59;;;6.07;100.00
31062;BME280;17724;53.546;9.974;2024-01-27T07:08:51;103122.38;;;5.89;100.00
31062;BME280;17724;53.546;9.974;2024-01-27T07:12:51;103114.59;;;5.95;100.00
31062;BME280;17724;53.546;9.974;2024-01-27T07:16:52;103131.41;;;5.82;100.00
31062;BME280;17724;53.546;9.974;2024-01-27T07:20:52;103150.53;;;5.82;100.00
31062;BME280;17724;53.546;9.974;2024-01-27T07:24:55;103149.69;;;5.81;100.00
31062;BME280;17724;53.546;9.974;2024-01-27T07:28:56;103142.19;;;5.83;100.00
31062;BME280;17724;53.546;9.974;2024-01-27T07:32:57;103163.00;;;5.68;100.00
31062;BME280;17724;53.546;9.974;2024-01-27T07:36:58;103155.44;;;5.46;100.00
31062;BME280;17724;53.546;9.974;2024-01-27T07:40:58;103165.69;;;5.52;100.00
31062;BME280;17724;53.546;9.974;2024-01-27T07:44:59;103172.53;;;5.64;100.00
31062;BME280;17724;53.546;9.974;2024-01-27T07:49:00;103149.75;;;5.23;100.00
31062;BME280;17724;53.546;9.974;2024-01-27T07:53:01;103178.59;;;4.91;100.00
31062;BME280;17724;53.546;9.974;2024-01-27T07:57:01;103168.66;;;5.16;100.00
31062;BME280;17724;53.546;9.974;2024-01-27T08:01:01;103174.38;;;5.47;100.00
31062;BME280;17724;53.546;9.974;2024-01-27T08:05:05;103176.44;;;5.53;100.00
31062;BME280;17724;53.546;9.974;2024-01-27T08:09:06;103182.91;;;5.52;100.00
31062;BME280;17724;53.546;9.974;2024-01-27T08:13:07;103174.38;;;5.47;100.00
31062;BME280;17724;53.546;9.974;2024-01-27T08:17:08;103177.22;;;5.37;100.00
31062;BME280;17724;53.546;9.974;2024-01-27T08:21:08;103182.22;;;5.00;100.00
31062;BME280;17724;53.546;9.974;2024-01-27T08:25:09;103195.53;;;5.03;100.00
31062;BME280;17724;53.546;9.974;2024-01-27T08:29:09;103199.75;;;5.31;100.00
31062;BME280;17724;53.546;9.974;2024-01-27T08:33:10;103201.09;;;5.27;100.00
31062;BME280;17724;53.546;9.974;2024-01-27T08:37:15;103197.59;;;5.51;100.00
31062;BME280;17724;53.546;9.974;2024-01-27T08:41:18;103203.22;;;5.58;100.00
31062;BME280;17724;53.546;9.974;2024-01-27T08:45:19;103202.53;;;5.48;100.00
31062;BME280;17724;53.546;9.974;2024-01-27T08:49:19;103206.94;;;5.40;100.00
31062;BME280;17724;53.546;9.974;2024-01-27T08:53:20;103225.34;;;5.38;100.00
31062;BME280;17724;53.546;9.974;2024-01-27T08:57:20;103215.97;;;5.41;100.00
31062;BME280;17724;53.546;9.974;2024-01-27T09:01:21;103229.31;;;5.52;100.00
31062;BME280;17724;53.546;9.974;2024-01-27T09:05:21;103230.03;;;5.62;100.00
31062;BME280;17724;53.546;9.974;2024-01-27T09:09:21;103234.28;;;5.57;100.00
31062;BME280;17724;53.546;9.974;2024-01-27T09:13:22;103236.19;;;5.64;100.00
31062;BME280;17724;53.546;9.974;2024-01-27T09:17:22;103240.28;;;5.68;100.00
31062;BME280;17724;53.546;9.974;2024-01-27T09:21:23;103235.69;;;5.77;100.00
31062;BME280;17724;53.546;9.974;2024-01-27T09:25:28;103239.75;;;5.65;100.00
31062;BME280;17724;53.546;9.974;2024-01-27T09:29:30;103241.34;;;5.76;100.00
31062;BME280;17724;53.546;9.974;2024-01-27T09:33:31;103236.94;;;5.83;100.00
31062;BME280;17724;53.546;9.974;2024-01-27T09:37:31;103219.63;;;5.66;100.00
31062;BME280;17724;53.546;9.974;2024-01-27T09:41:33;103246.31;;;5.88;100.00
31062;BME280;17724;53.546;9.974;2024-01-27T09:45:35;103233.94;;;6.10;100.00
31062;BME280;17724;53.546;9.974;2024-01-27T09:49:39;103247.09;;;6.31;100.00
31062;BME280;17724;53.546;9.974;2024-01-27T09:53:39;103240.06;;;6.21;100.00
31062;BME280;17724;53.546;9.974;2024-01-27T09:57:40;103251.00;;;6.53;100.00
31062;BME280;17724;53.546;9.974;2024-01-27T10:01:43;103259.06;;;6.47;100.00
31062;BME280;17724;53.546;9.974;2024-01-27T10:05:44;103250.16;;;6.53;100.00
31062;BME280;17724;53.546;9.974;2024-01-27T10:09:49;103257.19;;;6.47;100.00
31062;BME280;17724;53.546;9.974;2024-01-27T10:13:56;103257.00;;;6.65;100.00
31062;BME280;17724;53.546;9.974;2024-01-27T10:18:05;103262.66;;;6.39;100.00
31062;BME280;17724;53.546;9.974;2024-01-27T10:22:06;103267.59;;;6.60;100.00
31062;BME280;17724;53.546;9.974;2024-01-27T10:26:10;103247.75;;;6.82;100.00
31062;BME280;17724;53.546;9.974;2024-01-27T10:30:17;103269.22;;;7.02;100.00
31062;BME280;17724;53.546;9.974;2024-01-27T10:34:21;103265.13;;;7.06;100.00
31062;BME280;17724;53.546;9.974;2024-01-27T10:38:22;103270.47;;;6.91;100.00
31062;BME280;17724;53.546;9.974;2024-01-27T10:42:34;103260.38;;;7.00;100.00
31062;BME280;17724;53.546;9.974;2024-01-27T10:46:35;103257.97;;;6.97;100.00
31062;BME280;17724;53.546;9.974;2024-01-27T10:50:37;103280.44;;;7.39;100.00
31062;BME280;17724;53.546;9.974;2024-01-27T10:54:39;103273.31;;;7.14;100.00
31062;BME280;17724;53.546;9.974;2024-01-27T10:58:41;103260.09;;;7.26;100.00
31062;BME280;17724;53.546;9.974;2024-01-27T11:02:44;103251.69;;;7.35;100.00
31062;BME280;17724;53.546;9.974;2024-01-27T11:06:47;103268.38;;;7.57;100.00
31062;BME280;17724;53.546;9.974;2024-01-27T11:10:48;103257.69;;;7.39;99.42
31062;BME280;17724;53.546;9.974;2024-01-27T11:14:48;103256.09;;;7.45;98.80
31062;BME280;17724;53.546;9.974;2024-01-27T11:18:49;103265.09;;;7.61;99.01
31062;BME280;17724;53.546;9.974;2024-01-27T11:22:49;103272.63;;;7.99;98.64
31062;BME280;17724;53.546;9.974;2024-01-27T11:27:03;103281.03;;;7.66;97.61
31062;BME280;17724;53.546;9.974;2024-01-27T11:31:05;103288.03;;;8.00;97.89
31062;BME280;17724;53.546;9.974;2024-01-27T11:35:06;103284.44;;;7.99;96.45
31062;BME280;17724;53.546;9.974;2024-01-27T11:39:31;103287.25;;;7.83;95.86
31062;BME280;17724;53.546;9.974;2024-01-27T11:43:31;103292.50;;;7.93;95.54
31062;BME280;17724;53.546;9.974;2024-01-27T11:47:32;103300.53;;;8.25;94.66
31062;BME280;17724;53.546;9.974;2024-01-27T11:51:32;103296.88;;;8.10;94.10
31062;BME280;17724;53.546;9.974;2024-01-27T11:55:33;103308.50;;;8.43;93.49
31062;BME280;17724;53.546;9.974;2024-01-27T11:59:33;103292.41;;;8.40;92.47
31062;BME280;17724;53.546;9.974;2024-01-27T12:03:34;103311.91;;;8.45;93.09
31062;BME280;17724;53.546;9.974;2024-01-27T12:07:35;103313.84;;;8.59;91.93
31062;BME280;17724;53.546;9.974;2024-01-27T12:11:36;103329.03;;;8.47;91.78
31062;BME280;17724;53.546;9.974;2024-01-27T12:15:36;103329.09;;;8.62;91.25
31062;BME280;17724;53.546;9.974;2024-01-27T12:19:37;103316.66;;;8.74;91.88
31062;BME280;17724;53.546;9.974;2024-01-27T12:23:51;103325.59;;;8.22;91.80
31062;BME280;17724;53.546;9.974;2024-01-27T12:27:52;103332.50;;;8.41;92.81
31062;BME280;17724;53.546;9.974;2024-01-27T12:31:53;103335.38;;;8.71;91.47
31062;BME280;17724;53.546;9.974;2024-01-27T12:35:54;103329.63;;;8.34;90.85
31062;BME280;17724;53.546;9.974;2024-01-27T12:39:55;103319.97;;;8.47;91.53
31062;BME280;17724;53.546;9.974;2024-01-27T12:43:56;103309.47;;;8.50;91.46
31062;BME280;17724;53.546;9.974;2024-01-27T12:47:56;103306.84;;;8.34;91.93
31062;BME280;17724;53.546;9.974;2024-01-27T12:51:57;103292.28;;;8.56;91.59
31062;BME280;17724;53.546;9.974;2024-01-27T12:55:57;103318.31;;;8.60;90.78
31062;BME280;17724;53.546;9.974;2024-01-27T12:59:58;103303.00;;;8.66;90.79
31062;BME280;17724;53.546;9.974;2024-01-27T13:03:58;103291.22;;;8.34;90.67
31062;BME280;17724;53.546;9.974;2024-01-27T13:07:59;103295.31;;;8.61;92.21
31062;BME280;17724;53.546;9.974;2024-01-27T13:12:00;103303.34;;;8.86;91.48
31062;BME280;17724;53.546;9.974;2024-01-27T13:16:00;103305.44;;;8.99;92.43
31062;BME280;17724;53.546;9.974;2024-01-27T13:20:01;103310.63;;;8.79;90.57
31062;BME280;17724;53.546;9.974;2024-01-27T13:24:01;103296.84;;;9.02;91.13
31062;BME280;17724;53.546;9.974;2024-01-27T13:28:02;103294.09;;;9.02;92.07
31062;BME280;17724;53.546;9.974;2024-01-27T13:32:03;103320.47;;;8.65;91.69
31062;BME280;17724;53.546;9.974;2024-01-27T13:36:04;103323.50;;;8.93;92.59
31062;BME280;17724;53.546;9.974;2024-01-27T13:40:05;103320.69;;;9.01;91.72
31062;BME280;17724;53.546;9.974;2024-01-27T13:44:07;103310.81;;;8.92;92.06
31062;BME280;17724;53.546;9.974;2024-01-27T13:48:09;103303.75;;;8.98;92.43
31062;BME280;17724;53.546;9.974;2024-01-27T13:52:10;103307.19;;;9.15;93.17
31062;BME280;17724;53.546;9.974;2024-01-27T13:56:11;103323.41;;;8.86;91.59
31062;BME280;17724;53.546;9.974;2024-01-27T14:00:12;103313.28;;;8.87;93.43
31062;BME280;17724;53.546;9.974;2024-01-27T14:04:12;103309.16;;;8.68;92.33
31062;BME280;17724;53.546;9.974;2024-01-27T14:08:13;103311.31;;;8.58;94.58
31062;BME280;17724;53.546;9.974;2024-01-27T14:12:14;103310.78;;;8.77;94.78
31062;BME280;17724;53.546;9.974;2024-01-27T14:16:15;103306.22;;;8.70;94.46
31062;BME280;17724;53.546;9.974;2024-01-27T14:20:16;103307.50;;;8.82;93.12
31062;BME280;17724;53.546;9.974;2024-01-27T14:24:16;103301.13;;;8.81;93.45
31062;BME280;17724;53.546;9.974;2024-01-27T14:28:17;103312.72;;;8.54;93.98
31062;BME280;17724;53.546;9.974;2024-01-27T14:32:18;103313.03;;;9.11;95.68
31062;BME280;17724;53.546;9.974;2024-01-27T14:36:19;103310.53;;;8.87;93.67
31062;BME280;17724;53.546;9.974;2024-01-27T14:40:20;103314.91;;;8.58;94.40
31062;BME280;17724;53.546;9.974;2024-01-27T14:44:22;103310.00;;;8.69;94.33
31062;BME280;17724;53.546;9.974;2024-01-27T14:48:23;103317.31;;;8.76;94.37
31062;BME280;17724;53.546;9.974;2024-01-27T14:52:23;103323.06;;;8.67;94.04
31062;BME280;17724;53.546;9.974;2024-01-27T14:56:25;103322.31;;;9.25;95.44
31062;BME280;17724;53.546;9.974;2024-01-27T15:00:25;103320.91;;;9.44;94.38
31062;BME280;17724;53.546;9.974;2024-01-27T15:04:26;103315.50;;;9.21;93.39
31062;BME280;17724;53.546;9.974;2024-01-27T15:08:27;103312.09;;;9.19;93.91
31062;BME280;17724;53.546;9.974;2024-01-27T15:12:27;103309.63;;;9.24;93.88
31062;BME280;17724;53.546;9.974;2024-01-27T15:16:28;103309.28;;;8.89;93.31
31062;BME280;17724;53.546;9.974;2024-01-27T15:20:29;103303.88;;;9.19;98.56
31062;BME280;17724;53.546;9.974;2024-01-27T15:24:29;103315.72;;;9.34;96.97
31062;BME280;17724;53.546;9.974;2024-01-27T15:28:33;103314.16;;;9.17;93.35
31062;BME280;17724;53.546;9.974;2024-01-27T15:32:34;103317.13;;;9.30;95.32
31062;BME280;17724;53.546;9.974;2024-01-27T15:36:36;103313.91;;;9.27;93.75
31062;BME280;17724;53.546;9.974;2024-01-27T15:40:36;103318.13;;;9.00;93.91
31062;BME280;17724;53.546;9.974;2024-01-27T15:44:37;103329.47;;;8.97;93.69
31062;BME280;17724;53.546;9.974;2024-01-27T15:48:37;103333.06;;;8.97;93.92
31062;BME280;17724;53.546;9.974;2024-01-27T15:52:38;103334.34;;;8.72;94.65
31062;BME280;17724;53.546;9.974;2024-01-27T15:56:38;103337.25;;;8.47;95.71
31062;BME280;17724;53.546;9.974;2024-01-27T16:00:39;103345.13;;;8.73;95.64
31062;BME280;17724;53.546;9.974;2024-01-27T16:04:39;103344.72;;;8.99;99.32
31062;BME280;17724;53.546;9.974;2024-01-27T16:08:40;103333.91;;;9.35;100.00
31062;BME280;17724;53.546;9.974;2024-01-27T16:12:41;103346.69;;;9.43;97.26
31062;BME280;17724;53.546;9.974;2024-01-27T16:16:41;103349.22;;;9.45;99.27
31062;BME280;17724;53.546;9.974;2024-01-27T16:20:42;103354.84;;;9.51;97.27
31062;BME280;17724;53.546;9.974;2024-01-27T16:24:43;103355.88;;;9.50;95.93
31062;BME280;17724;53.546;9.974;2024-01-27T16:28:44;103350.47;;;9.42;94.83
31062;BME280;17724;53.546;9.974;2024-01-27T16:32:46;103358.34;;;9.30;95.89
31062;BME280;17724;53.546;9.974;2024-01-27T16:36:47;103365.72;;;9.30;96.78
31062;BME280;17724;53.546;9.974;2024-01-27T16:40:47;103370.00;;;9.09;93.96
31062;BME280;17724;53.546;9.974;2024-01-27T16:44:48;103370.41;;;9.21;95.72
31062;BME280;17724;53.546;9.974;2024-01-27T16:48:48;103372.81;;;9.24;98.17
31062;BME280;17724;53.546;9.974;2024-01-27T16:52:51;103375.47;;;9.32;96.66
31062;BME280;17724;53.546;9.974;2024-01-27T16:56:51;103369.66;;;9.12;96.41
31062;BME280;17724;53.546;9.974;2024-01-27T17:00:52;103373.75;;;9.31;99.98
31062;BME280;17724;53.546;9.974;2024-01-27T17:04:53;103389.63;;;9.21;96.89
31062;BME280;17724;53.546;9.974;2024-01-27T17:08:54;103389.97;;;9.26;98.63
31062;BME280;17724;53.546;9.974;2024-01-27T17:12:54;103394.41;;;9.27;99.20
31062;BME280;17724;53.546;9.974;2024-01-27T17:16:55;103389.56;;;9.15;98.24
31062;BME280;17724;53.546;9.974;2024-01-27T17:20:56;103390.88;;;9.19;98.10
31062;BME280;17724;53.546;9.974;2024-01-27T17:24:58;103386.72;;;9.23;99.41
31062;BME280;17724;53.546;9.974;2024-01-27T17:29:01;103390.84;;;9.04;94.14
31062;BME280;17724;53.546;9.974;2024-01-27T17:33:03;103383.44;;;9.04;96.89
31062;BME280;17724;53.546;9.974;2024-01-27T17:37:03;103401.66;;;9.20;94.78
31062;BME280;17724;53.546;9.974;2024-01-27T17:41:04;103398.78;;;8.99;94.02
31062;BME280;17724;53.546;9.974;2024-01-27T17:45:05;103394.13;;;8.99;95.99
31062;BME280;17724;53.546;9.974;2024-01-27T17:49:06;103392.75;;;8.80;95.08
31062;BME280;17724;53.546;9.974;2024-01-27T17:53:07;103396.41;;;8.96;97.84
31062;BME280;17724;53.546;9.974;2024-01-27T17:57:08;103400.97;;;9.03;96.03
31062;BME280;17724;53.546;9.974;2024-01-27T18:01:09;103400.47;;;9.00;97.18
31062;BME280;17724;53.546;9.974;2024-01-27T18:05:09;103410.31;;;8.94;96.02
31062;BME280;17724;53.546;9.974;2024-01-27T18:09:10;103406.81;;;9.00;99.75
31062;BME280;17724;53.546;9.974;2024-01-27T18:13:10;103402.56;;;8.75;96.20
31062;BME280;17724;53.546;9.974;2024-01-27T18:17:11;103410.53;;;8.61;98.60
31062;BME280;17724;53.546;9.974;2024-01-27T18:21:11;103407.72;;;8.70;99.90
31062;BME280;17724;53.546;9.974;2024-01-27T18:25:12;103410.31;;;8.94;100.00
31062;BME280;17724;53.546;9.974;2024-01-27T18:29:13;103416.09;;;8.99;100.00
31062;BME280;17724;53.546;9.974;2024-01-27T18:33:13;103413.56;;;8.98;98.61
31062;BME280;17724;53.546;9.974;2024-01-27T18:37:16;103409.81;;;8.91;97.99
31062;BME280;17724;53.546;9.974;2024-01-27T18:41:16;103403.16;;;8.85;98.45
31062;BME280;17724;53.546;9.974;2024-01-27T18:45:17;103407.63;;;8.63;97.83
31062;BME280;17724;53.546;9.974;2024-01-27T18:49:17;103407.72;;;8.70;100.00
31062;BME280;17724;53.546;9.974;2024-01-27T18:53:18;103396.66;;;8.63;100.00
31062;BME280;17724;53.546;9.974;2024-01-27T18:57:18;103411.28;;;8.78;100.00
31062;BME280;17724;53.546;9.974;2024-01-27T19:01:19;103408.72;;;8.77;99.88
31062;BME280;17724;53.546;9.974;2024-01-27T19:05:20;103416.25;;;8.52;97.89
31062;BME280;17724;53.546;9.974;2024-01-27T19:09:20;103424.78;;;8.18;94.68
31062;BME280;17724;53.546;9.974;2024-01-27T19:13:21;103424.06;;;8.32;99.67
31062;BME280;17724;53.546;9.974;2024-01-27T19:17:21;103414.44;;;8.36;99.70
31062;BME280;17724;53.546;9.974;2024-01-27T19:21:22;103431.47;;;8.23;99.33
31062;BME280;17724;53.546;9.974;2024-01-27T19:25:22;103441.84;;;8.44;100.00
31062;BME280;17724;53.546;9.974;2024-01-27T19:29:23;103434.41;;;8.53;100.00
31062;BME280;17724;53.546;9.974;2024-01-27T19:33:24;103446.25;;;8.53;100.00
31062;BME280;17724;53.546;9.974;2024-01-27T19:37:24;103449.53;;;8.49;98.24
31062;BME280;17724;53.546;9.974;2024-01-27T19:41:25;103453.66;;;8.45;96.31
31062;BME280;17724;53.546;9.974;2024-01-27T19:45:25;103461.22;;;8.43;98.82
31062;BME280;17724;53.546;9.974;2024-01-27T19:49:26;103456.59;;;8.43;100.00
31062;BME280;17724;53.546;9.974;2024-01-27T19:53:27;103464.84;;;7.87;94.88
31062;BME280;17724;53.546;9.974;2024-01-27T19:57:29;103452.91;;;7.64;99.39
31062;BME280;17724;53.546;9.974;2024-01-27T20:01:29;103449.38;;;8.03;100.00
31062;BME280;17724;53.546;9.974;2024-01-27T20:05:30;103456.00;;;8.17;100.00
31062;BME280;17724;53.546;9.974;2024-01-27T20:09:30;103470.00;;;8.22;100.00
31062;BME280;17724;53.546;9.974;2024-01-27T20:13:31;103454.09;;;8.17;100.00
31062;BME280;17724;53.546;9.974;2024-01-27T20:17:31;103453.25;;;8.17;100.00
31062;BME280;17724;53.546;9.974;2024-01-27T20:21:32;103456.81;;;8.25;98.60
31062;BME280;17724;53.546;9.974;2024-01-27T20:25:33;103460.28;;;8.19;98.35
31062;BME280;17724;53.546;9.974;2024-01-27T20:29:34;103471.91;;;8.21;96.70
31062;BME280;17724;53.546;9.974;2024-01-27T20:33:34;103468.69;;;8.09;98.49
31062;BME280;17724;53.546;9.974;2024-01-27T20:37:35;103479.53;;;8.03;96.91
31062;BME280;17724;53.546;9.974;2024-01-27T20:41:36;103478.69;;;7.94;97.11
31062;BME280;17724;53.546;9.974;2024-01-27T20:45:37;103467.38;;;7.97;98.29
31062;BME280;17724;53.546;9.974;2024-01-27T20:49:38;103463.13;;;7.86;98.24
31062;BME280;17724;53.546;9.974;2024-01-27T20:53:39;103463.09;;;7.95;98.09
31062;BME280;17724;53.546;9.974;2024-01-27T20:57:40;103480.06;;;7.98;95.93
31062;BME280;17724;53.546;9.974;2024-01-27T21:01:40;103478.84;;;7.93;97.06
31062;BME280;17724;53.546;9.974;2024-01-27T21:05:42;103476.81;;;7.95;96.06
31062;BME280;17724;53.546;9.974;2024-01-27T21:09:43;103480.13;;;7.57;93.41